Werte bis 5 Uhr SommerzeitDiagramme Münzenberg: Tagesdaten MonatsdatenCSV-Datei: Muenzenberg21.csv

Wetterdaten 2021 Station: Münzenberg
Temperaturen in °C relative Nieder- Global- Wind Wind Wind- Sonnen-
Datum Boden Boden Luft Luft Luft Luft Feuchte schlag strahlung max richtung schein
20 cm 5 cm 20 cm 2 m 2 m max 2 m min % mm W/m2*d m/s m/s ° h

27.10.2021 10,4 9,2 5,0 6,8 7,8 6,3 97 0,0 0 0,5 3,3 --- ---
26.10.2021 9,9 9,7 10,0 10,5 16,7 6,1 85 0,0 1969 1,3 7,4 --- 5,9
25.10.2021 9,4 8,0 5,1 5,7 12,6 -0,7 92 0,2 2023 1,2 6,2 --- 6,8
24.10.2021 10,0 8,4 3,8 4,8 14,1 -2,5 86 0,2 2695 0,9 8,2 --- 7,9
23.10.2021 10,6 9,6 6,5 7,2 13,1 0,7 90 0,2 1449 0,9 5,7 --- 5,3
22.10.2021 10,9 9,6 6,7 7,3 11,3 1,9 82 1,1 2407 3,2 11,6 --- 6,5
21.10.2021 11,8 11,7 10,7 11,2 15,5 4,7 80 5,0 1108 5,8 24,0 --- 2,9
20.10.2021 11,1 11,4 13,5 14,1 17,8 10,9 87 0,0 1129 3,6 10,5 --- 3,2
19.10.2021 10,5 9,8 9,7 10,0 13,9 7,2 97 4,1 673 3,4 9,3 --- 0,9
18.10.2021 10,7 9,4 5,8 6,1 10,5 0,0 96 0,1 786 0,9 5,1 --- 0,9
17.10.2021 10,9 10,2 8,1 8,1 14,4 3,6 87 0,0 1661 0,6 5,0 --- 6,4
16.10.2021 11,0 9,7 5,3 5,5 15,6 0,1 91 0,2 2298 0,7 4,7 --- 6,7
15.10.2021 11,5 10,7 7,9 8,6 12,4 3,4 94 0,0 915 1,1 5,0 --- 2,4
14.10.2021 11,5 10,9 9,9 10,1 12,8 7,7 93 0,0 564 0,8 3,3 --- 0,7
13.10.2021 11,4 10,4 7,9 8,2 11,8 2,0 90 0,0 2012 1,4 6,5 --- 6,8
12.10.2021 11,6 10,7 8,1 8,7 12,2 2,8 94 3,4 1076 1,7 8,1 --- 3,9
11.10.2021 11,7 10,2 6,0 6,3 13,9 0,2 94 0,1 1201 0,7 5,4 --- 3,6
10.10.2021 12,4 11,0 5,4 6,3 16,5 -0,7 85 0,1 3120 0,8 3,1 --- 8,4
09.10.2021 12,9 12,1 8,1 8,4 18,0 1,6 84 0,1 3411 1,2 5,1 --- 8,6
08.10.2021 13,2 12,4 9,3 9,6 16,9 3,4 89 0,1 2595 1,6 6,2 --- 8,7
07.10.2021 13,7 13,4 11,0 10,9 17,6 5,7 91 0,2 1850 0,9 4,0 --- 6,5
06.10.2021 13,9 13,3 10,9 11,2 14,3 8,5 88 0,6 1782 2,4 9,9 --- 4,9
05.10.2021 14,2 14,0 12,2 12,3 16,6 9,8 92 9,1 1830 1,6 7,5 --- 6,0
04.10.2021 14,5 14,3 12,3 12,6 15,9 10,1 92 0,4 1445 1,5 6,5 --- 6,0
03.10.2021 14,4 14,7 16,9 17,6 21,5 12,4 71 1,5 719 3,0 25,1 --- 1,6
02.10.2021 13,9 13,9 15,0 15,3 20,7 9,8 73 0,2 2785 2,3 10,7 --- 6,8
01.10.2021 13,7 13,0 10,7 11,4 19,2 3,8 76 0,0 3715 1,4 6,7 --- 8,5
30.09.2021 14,2 13,1 9,8 10,4 16,9 5,9 80 0,1 2784 1,6 7,4 --- 8,1
29.09.2021 15,2 14,4 10,9 11,4 17,1 7,4 86 1,2 1985 2,0 14,2 --- 6,1
28.09.2021 16,0 15,9 12,3 12,7 18,8 7,9 87 0,3 2656 0,6 4,3 --- 7,8
27.09.2021 16,1 16,9 17,0 17,0 20,4 12,7 90 0,9 2422 1,9 8,8 --- 7,1
26.09.2021 15,7 16,2 16,9 17,2 22,9 10,7 91 3,2 2390 1,0 6,7 --- 7,2
25.09.2021 15,4 15,6 14,3 14,7 24,5 7,1 83 0,0 3789 0,8 4,6 --- 8,4
24.09.2021 15,4 15,7 16,2 16,8 22,4 10,4 78 0,0 1726 1,8 8,6 --- 6,1
23.09.2021 14,9 14,7 13,4 13,6 23,5 5,0 78 0,1 3681 1,5 9,1 --- 8,5
22.09.2021 15,0 14,5 11,2 11,5 22,2 3,6 82 0,0 3705 0,8 5,7 --- 9,0
21.09.2021 15,5 14,9 10,5 10,5 18,0 2,4 77 0,0 2974 1,1 5,1 --- 8,1
20.09.2021 16,0 15,7 12,9 12,6 15,7 10,0 73 0,0 1878 1,4 4,4 --- 6,5
19.09.2021 16,4 15,9 12,5 12,3 18,5 6,4 84 0,0 2143 1,6 6,4 --- 7,7
18.09.2021 16,7 16,8 14,3 14,1 22,5 8,2 84 0,1 3859 1,1 5,1 --- 8,9
17.09.2021 17,1 16,8 13,8 14,2 21,9 8,1 89 0,1 2445 0,8 3,7 --- 7,4
16.09.2021 17,8 18,2 16,6 16,6 18,3 11,8 82 0,1 2081 2,2 8,8 --- 7,8
15.09.2021 17,8 18,7 18,6 19,1 21,6 16,0 94 1,5 1780 1,6 5,7 --- 6,2
14.09.2021 17,5 18,1 17,6 17,7 27,1 9,3 83 0,0 3945 0,7 3,9 --- 9,2
13.09.2021 17,6 17,9 15,7 15,7 24,4 8,3 80 0,1 4298 0,9 5,7 --- 9,6
12.09.2021 18,0 18,7 16,9 16,9 23,8 11,4 83 0,1 3613 1,0 6,9 --- 9,2
11.09.2021 18,2 19,2 18,4 18,6 22,9 13,4 91 0,2 2234 1,1 5,0 --- 6,7
10.09.2021 18,2 19,2 19,9 20,0 24,0 16,7 84 7,4 2606 1,7 7,1 --- 7,2
09.09.2021 17,8 18,5 18,9 19,1 28,4 10,4 80 0,0 4173 1,3 7,2 --- 8,9
08.09.2021 17,8 18,6 17,7 18,0 27,1 9,7 75 0,0 5016 1,1 6,1 --- 10,5
07.09.2021 17,8 18,6 17,8 17,8 26,9 11,4 74 0,0 4042 1,2 6,6 --- 9,6
06.09.2021 17,6 18,4 18,2 18,3 28,5 9,5 72 0,0 4959 1,0 5,7 --- 10,5
05.09.2021 17,4 18,3 17,3 17,3 27,4 9,4 76 0,0 5143 1,0 5,1 --- 10,5
04.09.2021 17,2 18,0 17,3 17,4 27,1 8,9 77 0,0 4814 1,3 5,2 --- 10,0
03.09.2021 16,9 17,6 16,6 16,9 27,0 8,0 77 0,0 5370 0,8 4,3 --- 10,7
02.09.2021 16,7 17,1 15,0 15,4 25,0 6,4 80 0,0 5279 1,0 6,3 --- 10,7
01.09.2021 16,7 16,9 14,6 14,4 21,6 8,6 82 0,0 3867 1,3 4,9 --- 10,5
31.08.2021 16,7 17,0 15,1 15,4 22,4 9,9 82 0,0 3852 1,7 7,2 --- 9,2
30.08.2021 16,7 16,9 16,3 16,5 19,4 11,8 84 0,1 1667 2,7 8,2 --- 5,2
29.08.2021 16,8 16,8 14,9 14,9 17,4 13,7 94 8,8 1191 2,3 6,5 --- 3,4
28.08.2021 16,8 16,9 14,6 14,3 18,7 8,6 84 2,1 3138 1,5 6,8 --- 8,6
27.08.2021 17,3 17,0 14,5 14,6 19,4 9,9 84 1,0 2749 3,0 11,9 --- 8,5
26.08.2021 17,7 18,0 16,9 16,7 21,4 12,6 73 0,2 3792 3,2 8,2 --- 8,4
25.08.2021 17,4 17,8 16,0 15,8 24,4 6,3 69 0,0 5790 1,3 5,7 --- 10,7
24.08.2021 17,8 17,7 14,0 13,8 21,5 7,0 82 0,0 4619 1,9 11,2 --- 10,9
23.08.2021 18,3 18,9 16,5 16,2 22,5 10,6 89 0,0 3210 1,5 7,5 --- 9,7
22.08.2021 18,7 19,6 17,7 17,6 22,3 13,7 91 7,9 2670 1,5 11,3 --- 7,5
21.08.2021 18,1 19,3 19,2 19,5 27,8 10,6 77 0,0 5116 0,8 5,0 --- 11,2
20.08.2021 17,8 18,7 17,7 17,6 24,8 11,1 80 0,0 4444 1,4 6,4 --- 9,1
19.08.2021 17,7 18,2 18,2 18,5 21,6 15,0 81 0,2 2006 1,8 7,2 --- 7,6
18.08.2021 17,6 17,8 17,1 17,0 19,8 13,1 83 0,0 2002 2,1 6,7 --- 7,4
17.08.2021 18,2 17,7 14,5 14,4 18,5 10,1 80 0,3 3045 3,0 9,6 --- 8,5
16.08.2021 19,4 19,7 17,1 17,3 22,1 10,9 77 1,3 2723 3,6 13,5 --- 8,7
15.08.2021 19,6 21,0 19,9 20,5 29,2 11,5 71 0,0 5632 1,0 6,0 --- 11,5
14.08.2021 19,3 21,0 21,3 21,6 30,4 11,8 71 0,0 6542 1,5 7,7 --- 11,7
13.08.2021 18,9 20,6 21,0 21,6 31,1 13,0 77 0,0 4570 1,2 7,8 --- 11,0
12.08.2021 18,5 19,9 19,6 20,5 28,6 11,9 80 0,0 4323 0,6 3,9 --- 11,2
11.08.2021 17,9 19,2 18,7 18,9 27,2 10,0 79 0,0 5317 0,9 5,8 --- 11,3
10.08.2021 17,5 18,2 16,6 16,8 25,8 9,5 82 3,2 3969 1,3 11,7 --- 7,8
09.08.2021 17,6 18,0 16,4 16,8 21,9 11,0 79 0,0 3709 2,1 9,4 --- 10,7
08.08.2021 18,1 18,5 16,0 16,3 21,0 12,3 83 7,9 3432 2,4 9,7 --- 8,2
07.08.2021 18,6 19,1 17,5 17,6 23,0 13,1 84 12,2 3023 1,8 10,3 --- 9,6
06.08.2021 18,9 19,8 18,1 18,1 23,0 14,2 85 6,5 3529 2,2 10,2 --- 9,2
05.08.2021 18,7 20,1 18,1 17,9 24,9 11,2 85 5,4 5003 0,9 7,7 --- 10,0
04.08.2021 18,4 19,4 17,6 17,3 23,7 13,0 85 3,7 3720 0,9 4,6 --- 9,3
03.08.2021 18,6 18,9 15,6 15,5 20,6 10,3 92 5,0 2691 1,0 5,5 --- 7,8
02.08.2021 19,0 19,8 16,8 16,5 22,3 11,4 85 7,8 3802 1,3 7,4 --- 8,0
01.08.2021 19,0 20,0 18,9 18,5 25,1 12,7 72 0,0 5371 2,1 10,7 --- 11,1
31.07.2021 19,1 19,8 19,1 19,3 24,1 12,9 62 0,0 5724 2,9 10,4 --- 11,7
30.07.2021 19,1 20,1 19,5 19,7 27,6 9,3 68 0,0 6312 1,7 7,8 --- 11,4
29.07.2021 19,5 20,2 19,3 19,3 23,7 12,6 66 0,0 5340 2,7 10,7 --- 11,1
28.07.2021 19,7 20,8 18,8 18,8 23,9 13,9 85 4,3 4621 1,9 7,9 --- 11,4
27.07.2021 20,0 21,2 19,5 19,4 25,7 13,0 81 10,2 4598 1,3 7,4 --- 10,3
26.07.2021 20,1 21,6 20,8 20,8 27,2 12,9 76 0,0 4965 1,1 7,2 --- 11,3
25.07.2021 19,8 21,7 20,3 20,0 28,6 12,8 81 0,0 5409 1,0 5,5 --- 8,7
24.07.2021 19,9 21,0 19,4 19,5 26,9 11,5 84 7,8 3508 1,0 5,2 --- 9,8
23.07.2021 19,8 21,3 20,1 19,6 28,9 10,3 72 0,0 5857 0,9 4,4 --- 11,8
22.07.2021 19,8 21,1 18,9 18,3 27,2 9,8 73 0,0 5423 1,0 5,6 --- 11,8
21.07.2021 19,8 21,0 18,3 17,7 25,4 7,9 69 0,0 6769 1,2 9,3 --- 12,4
20.07.2021 20,0 21,4 18,0 17,1 24,3 9,9 72 0,0 6963 1,3 6,6 --- 12,3
19.07.2021 20,0 21,9 19,4 18,5 24,2 12,2 76 0,0 6592 2,0 9,4 --- 12,1
18.07.2021 19,6 21,6 20,6 20,8 29,1 12,0 71 0,0 7307 1,7 7,1 --- 12,1
17.07.2021 19,3 21,5 21,5 21,3 27,3 15,2 75 0,0 5675 2,0 7,4 --- 11,7
16.07.2021 18,7 20,1 19,8 19,1 25,5 13,5 86 1,7 4186 1,8 6,9 --- 10,1
15.07.2021 18,4 19,8 18,8 18,8 26,1 13,5 84 4,2 4313 1,0 5,7 --- 10,1
14.07.2021 18,8 19,6 16,7 16,7 18,0 15,5 93 0,4 1386 2,0 6,8 --- 4,3
13.07.2021 19,1 20,7 19,0 18,7 23,3 16,2 94 6,3 2553 1,3 8,6 --- 7,8
12.07.2021 18,7 20,3 19,5 19,4 25,6 11,6 80 0,1 5471 1,0 6,3 --- 12,0
11.07.2021 18,9 20,1 17,7 17,7 23,2 13,1 92 22,5 3089 1,1 6,0 --- 10,2
10.07.2021 18,5 20,2 19,4 19,3 25,8 12,5 79 0,1 6164 1,1 5,3 --- 11,3
09.07.2021 18,6 19,4 17,4 17,5 21,2 14,3 90 1,4 2146 1,2 5,9 --- 7,3
08.07.2021 18,9 19,9 17,9 17,7 25,8 12,5 87 0,6 3571 0,9 8,2 --- 8,5
07.07.2021 18,4 19,8 19,7 19,5 26,1 14,2 76 0,0 7027 1,4 6,8 --- 11,3
06.07.2021 18,6 19,1 18,0 18,6 21,3 15,3 89 10,3 1842 1,6 8,9 --- 6,6
05.07.2021 18,9 19,6 17,8 18,0 21,2 12,9 90 3,1 3042 1,6 6,2 --- 8,6
04.07.2021 19,2 20,7 18,8 18,6 26,0 14,1 90 7,2 3489 0,9 11,2 --- 8,3
03.07.2021 18,4 19,6 19,2 19,0 28,1 8,9 75 0,0 6876 0,7 5,0 --- 12,0
02.07.2021 18,0 18,6 17,5 17,4 22,7 11,9 78 0,9 5820 1,4 6,4 --- 12,3
01.07.2021 18,9 18,5 14,6 14,4 15,5 12,5 90 0,8 1418 2,2 7,9 --- 4,4
30.06.2021 19,7 20,3 17,5 17,1 22,0 13,8 87 1,3 4376 1,6 6,7 --- 9,9
29.06.2021 20,7 22,1 19,2 18,9 25,4 14,4 91 8,8 2829 1,3 9,1 --- 6,5
28.06.2021 20,4 22,6 23,3 22,9 30,3 14,7 78 0,6 5924 1,0 6,4 --- 12,0
27.06.2021 19,7 21,6 21,1 20,7 28,1 11,5 76 0,0 6240 0,9 6,5 --- 10,7
26.06.2021 19,2 20,6 18,9 18,6 27,4 9,3 76 0,0 6997 0,7 4,8 --- 11,8
25.06.2021 19,1 20,1 18,5 18,3 22,2 12,6 84 0,0 4687 1,2 5,8 --- 11,4
24.06.2021 19,5 20,1 16,8 16,4 20,5 13,4 93 11,1 1787 0,8 5,2 --- 4,6
23.06.2021 19,6 20,7 18,7 17,6 23,0 11,5 86 0,4 4911 1,4 6,0 --- 11,5
22.06.2021 20,5 20,8 16,4 15,4 19,9 12,3 85 10,0 3305 2,3 8,1 --- 8,2
21.06.2021 21,6 23,1 21,2 20,6 26,1 14,0 79 4,1 6455 2,7 9,2 --- 12,6
20.06.2021 21,9 24,3 25,0 24,5 28,3 20,4 69 0,5 6193 1,7 8,3 --- 11,5
19.06.2021 21,6 24,6 26,6 26,3 33,4 18,6 66 0,0 7290 0,9 4,2 --- 12,4
18.06.2021 20,9 23,8 25,7 25,7 34,3 15,0 69 0,0 6711 0,8 4,2 --- 11,6
17.06.2021 20,3 23,0 25,0 25,1 33,4 13,3 68 0,0 7535 1,2 6,5 --- 12,5
16.06.2021 19,7 22,3 22,8 22,4 31,3 13,1 72 0,0 6818 0,9 5,0 --- 11,8
15.06.2021 19,1 21,3 21,2 20,3 29,8 9,8 71 0,0 6495 1,2 5,9 --- 12,4
14.06.2021 18,7 20,5 18,9 18,9 28,1 7,1 67 0,0 8009 1,0 5,3 --- 12,6
13.06.2021 18,6 20,0 17,2 16,3 24,2 7,2 66 0,0 8004 1,3 5,2 --- 12,7
12.06.2021 19,3 20,8 18,8 19,0 23,9 12,5 77 0,0 5262 2,3 9,4 --- 11,8
11.06.2021 19,2 21,7 21,1 21,0 29,2 11,3 73 0,0 7250 1,0 5,3 --- 12,4
10.06.2021 18,6 21,3 20,9 20,3 27,9 12,0 75 0,0 7213 1,1 5,3 --- 12,6
09.06.2021 17,6 20,1 20,7 19,8 28,0 12,1 78 0,1 6854 1,0 7,3 --- 11,8
08.06.2021 16,9 18,8 19,6 19,1 24,3 13,6 83 0,0 5541 1,3 5,0 --- 12,4
07.06.2021 16,8 18,0 17,3 16,8 21,2 13,8 90 2,2 2758 1,6 5,1 --- 7,4
06.06.2021 17,4 18,7 17,4 17,1 20,0 15,4 91 8,8 2205 1,7 7,1 --- 6,1
05.06.2021 17,1 19,3 19,6 19,4 24,4 12,7 86 13,6 5103 1,4 7,1 --- 10,6
04.06.2021 16,7 19,2 19,9 19,7 28,7 13,6 86 3,2 4925 0,7 6,0 --- 9,6
03.06.2021 15,9 17,9 18,8 19,1 27,1 0,0 75 2,4 5265 1,2 6,0 --- 10,5
02.06.2021 15,2 17,2 17,5 18,1 27,8 7,0 64 0,0 7743 1,2 7,1 --- 12,0
01.06.2021 14,6 16,3 16,0 16,7 25,2 4,6 62 0,0 7737 1,2 6,3 --- 12,4
31.05.2021 13,9 15,5 15,0 14,8 24,2 4,2 65 0,0 7880 1,2 5,7 --- 12,4
30.05.2021 13,4 14,4 13,5 13,5 21,4 3,0 71 0,0 6713 1,6 10,8 --- 12,1
29.05.2021 12,9 14,2 13,2 13,0 20,6 3,8 71 0,0 7062 1,5 6,5 --- 12,1
28.05.2021 12,3 13,4 12,8 12,8 19,9 6,2 75 0,0 4642 1,1 5,5 --- 11,9
27.05.2021 12,1 12,3 10,8 10,8 13,7 6,5 86 0,5 2683 3,2 9,6 --- 10,4
26.05.2021 12,1 12,4 10,0 10,2 14,1 6,3 92 8,7 2920 2,1 11,2 --- 10,0
25.05.2021 12,7 12,5 9,2 9,4 12,0 7,3 86 2,9 2397 3,3 14,0 --- 8,6
24.05.2021 12,8 13,7 12,4 12,7 20,4 5,7 73 0,8 5372 2,4 10,2 --- 9,4
23.05.2021 12,8 13,1 11,5 12,0 17,0 5,9 71 0,1 4525 2,6 10,5 --- 11,1
22.05.2021 13,0 13,6 11,5 11,8 16,5 6,3 78 2,0 5498 4,3 16,7 --- 11,9
21.05.2021 13,3 14,1 13,6 14,1 17,2 10,7 64 0,0 4250 3,7 11,7 --- 11,7
20.05.2021 13,1 14,3 12,8 12,8 18,2 7,6 75 0,1 4713 1,6 8,9 --- 11,1
19.05.2021 12,6 13,5 10,4 10,3 17,3 3,0 81 0,1 5571 1,6 8,4 --- 10,7
18.05.2021 12,7 13,4 10,5 10,5 15,9 5,2 88 3,8 4816 2,1 10,3 --- 10,0
17.05.2021 12,8 13,6 11,1 11,4 15,4 7,5 89 8,2 3972 2,3 13,5 --- 9,2
16.05.2021 12,7 13,7 11,0 11,0 17,4 7,3 89 11,1 4191 2,5 13,4 --- 9,4
15.05.2021 13,0 13,6 11,0 11,3 14,9 6,9 83 1,8 3210 2,5 9,9 --- 8,6
14.05.2021 13,1 14,5 13,2 13,2 18,8 7,9 75 2,0 4851 1,5 8,5 --- 11,0
13.05.2021 12,9 14,2 12,7 12,7 19,8 6,7 81 0,1 3920 1,0 6,8 --- 9,3
12.05.2021 12,8 14,1 13,8 13,8 17,1 10,4 80 0,0 3008 1,9 6,7 --- 9,1
11.05.2021 12,7 14,2 14,0 14,0 17,5 10,9 92 3,3 2367 1,3 5,3 --- 7,9
10.05.2021 12,7 14,6 15,8 16,6 21,2 12,2 76 3,3 2126 1,9 8,9 --- 6,8
09.05.2021 10,9 14,0 17,8 18,6 28,1 8,2 54 0,0 6710 2,3 12,2 --- 11,5
08.05.2021 9,3 9,7 9,3 9,7 16,4 -1,7 64 0,0 5135 1,9 7,6 --- 12,1
07.05.2021 9,5 9,6 7,2 7,4 10,9 0,9 78 0,6 5068 3,2 10,4 --- 11,4
06.05.2021 9,3 9,4 7,3 7,2 11,8 2,3 80 4,5 3607 2,1 9,0 --- 9,4
05.05.2021 9,2 8,8 6,4 6,7 11,5 0,0 77 0,7 4805 3,3 15,0 --- 10,0
04.05.2021 9,8 9,3 9,1 9,7 13,4 5,6 68 0,4 1881 4,1 14,0 --- 5,0
03.05.2021 9,8 9,7 7,7 8,0 13,9 -1,5 64 0,0 5036 1,7 9,0 --- 10,7
02.05.2021 10,7 10,3 8,1 8,3 11,7 0,8 66 0,0 3503 2,8 10,9 --- 10,7
01.05.2021 10,7 11,3 10,0 9,9 14,3 2,4 70 0,0 4154 1,4 5,9 --- 11,5
30.04.2021 10,8 10,5 7,8 7,8 12,2 1,4 78 0,0 2812 0,9 3,7 --- 9,1
29.04.2021 11,9 12,9 10,9 11,0 16,1 3,7 78 8,9 4904 3,5 14,6 --- 10,0
28.04.2021 11,0 12,4 11,6 11,8 21,4 -0,7 62 7,9 6317 1,7 14,8 --- 10,9
27.04.2021 10,3 11,3 11,6 10,4 17,7 -0,3 48 0,0 7670 1,4 6,2 --- 10,7
26.04.2021 10,0 10,6 9,0 7,8 14,3 -1,2 54 0,0 6974 1,8 7,9 --- 12,1
25.04.2021 10,2 10,5 6,8 6,4 13,1 -0,8 66 0,0 6801 2,4 8,1 --- 11,8
24.04.2021 10,2 10,8 8,2 7,7 15,1 0,4 68 0,0 6325 2,1 7,7 --- 11,2
23.04.2021 9,9 10,5 8,2 8,0 16,2 -1,4 67 0,0 6665 1,4 6,2 --- 11,7
22.04.2021 9,9 10,5 8,5 7,9 14,9 1,8 63 0,0 6308 2,2 7,6 --- 10,9
21.04.2021 10,0 10,9 10,3 10,6 18,5 1,9 77 0,0 4132 1,7 10,5 --- 10,5
20.04.2021 9,0 10,6 10,6 10,9 18,9 0,3 74 0,0 6097 0,9 3,9 --- 11,2
19.04.2021 8,5 9,6 8,5 8,4 13,9 1,5 87 1,5 3346 1,3 6,8 --- 8,4
18.04.2021 7,4 8,6 8,8 8,4 13,9 5,0 86 11,6 2965 1,2 7,0 --- 7,5
17.04.2021 7,0 6,7 5,8 5,6 9,8 -0,6 71 0,0 2622 1,8 9,0 --- 8,3
16.04.2021 6,8 6,8 5,2 4,9 9,2 -0,5 74 0,0 2923 1,6 7,3 --- 9,3
15.04.2021 6,5 6,1 3,3 2,9 9,6 -3,1 78 0,1 4894 2,0 7,8 --- 10,4
14.04.2021 6,5 5,8 3,1 2,9 9,6 -3,6 76 0,3 4433 1,7 9,4 --- 10,7
13.04.2021 6,8 6,0 3,0 3,2 9,9 -3,7 79 0,1 4131 1,4 8,1 --- 10,3
12.04.2021 7,4 7,1 4,6 4,4 8,1 -1,7 80 0,0 3901 2,6 12,7 --- 9,6
11.04.2021 7,8 8,4 7,7 7,9 15,2 2,9 91 9,2 1860 2,7 8,2 --- 3,6
10.04.2021 7,2 8,0 8,0 8,1 10,2 6,2 93 11,4 1031 1,0 5,2 --- 2,5
09.04.2021 5,8 6,3 8,0 8,4 16,0 -0,3 54 0,0 4638 2,5 9,1 --- 10,2
08.04.2021 5,4 4,6 3,9 4,0 8,2 -0,7 68 0,0 3070 2,7 8,1 --- 10,4
07.04.2021 5,9 4,1 1,1 1,1 4,2 -3,1 84 0,7 1670 4,1 13,3 --- 6,9
06.04.2021 6,4 4,8 2,2 1,9 6,4 -1,7 80 0,0 4016 5,4 17,8 --- 9,3
05.04.2021 7,9 5,8 2,1 2,4 6,6 -1,1 83 2,3 1480 3,8 15,7 --- 3,9
04.04.2021 8,6 7,9 5,3 5,1 10,8 -1,5 71 0,0 3948 1,8 7,1 --- 9,7
03.04.2021 9,2 8,9 6,7 6,2 12,4 -0,4 63 0,0 5107 2,6 8,9 --- 10,6
02.04.2021 10,2 10,1 8,3 7,7 13,5 3,2 65 0,0 3341 3,1 9,5 --- 8,2
01.04.2021 10,2 11,9 13,7 14,3 24,5 4,6 64 0,0 4623 2,2 8,7 --- 9,9
31.03.2021 9,6 11,0 12,6 14,2 24,2 1,8 58 0,0 5148 1,5 8,2 --- 10,2
30.03.2021 8,8 10,4 11,6 12,5 24,5 0,8 60 0,0 5140 1,0 4,6 --- 10,2
29.03.2021 7,8 9,6 12,5 13,4 22,3 3,5 56 0,0 5094 1,7 6,3 --- 10,2
28.03.2021 7,0 7,1 8,0 8,3 15,1 0,1 72 0,0 3211 1,8 9,5 --- 8,5
27.03.2021 7,8 7,7 6,6 6,7 10,3 1,4 77 3,0 2802 4,0 15,8 --- 8,5
26.03.2021 7,4 8,9 10,8 11,3 16,2 5,6 71 0,0 3974 1,9 9,0 --- 9,2
25.03.2021 6,4 7,0 7,3 8,3 17,5 -1,1 76 0,0 3352 1,1 6,6 --- 7,3
24.03.2021 5,7 5,9 5,7 6,4 14,6 -3,2 76 0,1 4752 1,6 8,1 --- 7,8
23.03.2021 5,8 6,0 5,6 5,9 9,7 0,1 78 0,0 1705 1,3 6,7 --- 5,0
22.03.2021 5,5 5,4 5,4 5,2 8,4 3,0 78 0,0 1543 2,1 7,6 --- 4,6
21.03.2021 5,4 5,5 5,7 5,7 9,0 2,6 71 0,0 2730 3,8 12,1 --- 6,9
20.03.2021 4,6 4,2 3,0 2,2 7,3 -2,3 60 0,0 4094 1,5 5,8 --- 7,6
19.03.2021 5,0 4,2 1,7 1,7 6,7 -1,8 85 2,3 2546 2,5 11,1 --- 6,1
18.03.2021 4,7 4,0 2,5 2,9 8,9 -3,5 82 2,2 3789 1,5 9,8 --- 6,4
17.03.2021 5,4 4,5 1,9 2,3 5,8 -2,9 84 0,4 1414 1,6 8,4 --- 3,9
16.03.2021 5,6 5,3 4,9 5,0 9,5 1,9 81 0,3 2352 3,2 9,9 --- 5,9
15.03.2021 5,4 5,3 4,9 5,0 9,4 2,4 86 2,5 2640 3,9 13,3 --- 5,9
14.03.2021 5,5 5,0 4,4 4,5 7,3 1,5 83 1,3 1729 3,2 9,9 --- 3,9
13.03.2021 5,7 5,7 6,1 6,3 9,0 4,3 82 2,5 1569 5,4 15,4 --- 3,8
12.03.2021 5,6 5,6 6,8 7,1 10,3 4,3 70 0,2 1997 5,8 16,9 --- 4,5
11.03.2021 5,4 5,9 7,6 8,1 13,1 5,1 80 5,2 984 5,2 21,8 --- 2,5
10.03.2021 4,7 5,0 5,9 6,1 8,9 2,3 82 0,0 1564 1,4 6,0 --- 4,1
09.03.2021 4,3 3,6 2,5 2,8 6,2 -1,8 89 0,4 1192 1,1 8,1 --- 3,0
08.03.2021 4,3 3,0 0,3 0,9 6,8 -5,3 86 0,0 1408 0,6 4,4 --- 4,1
07.03.2021 4,5 3,3 0,9 2,1 9,6 -5,4 71 0,0 3808 1,2 6,8 --- 7,3
06.03.2021 5,0 3,5 0,2 1,0 8,8 -5,8 72 0,0 3746 1,0 4,5 --- 7,3
05.03.2021 6,2 5,6 2,6 2,7 6,3 -1,9 79 0,9 2254 2,7 9,9 --- 5,5
04.03.2021 6,1 6,4 6,4 6,7 12,2 1,1 89 4,0 1666 1,5 8,1 --- 4,8
03.03.2021 5,6 5,4 4,5 5,4 13,2 -1,8 86 0,1 2647 1,0 5,2 --- 5,8
02.03.2021 5,5 5,3 4,4 5,7 15,2 -2,4 82 0,2 3413 1,0 4,2 --- 7,0
01.03.2021 5,5 5,2 3,6 3,9 11,7 -1,7 89 0,1 3078 1,5 6,6 --- 6,0
28.02.2021 5,4 5,6 5,7 6,0 11,9 -0,8 76 0,0 3251 1,5 5,4 --- 6,7
27.02.2021 5,2 4,4 3,3 3,5 7,6 -1,4 87 0,1 2845 1,9 6,7 --- 6,8
26.02.2021 6,3 5,7 3,6 4,4 7,2 1,0 95 3,4 678 1,5 7,8 --- 1,1
25.02.2021 6,3 7,1 8,3 9,8 17,5 3,0 79 0,0 2853 1,2 6,0 --- 6,3
24.02.2021 5,8 7,0 9,6 10,8 17,4 5,4 82 0,0 2648 1,6 8,2 --- 6,0
23.02.2021 4,8 5,9 8,0 8,9 16,5 1,5 84 0,0 2610 1,5 7,6 --- 6,2
22.02.2021 4,4 4,4 3,9 4,9 10,5 -1,7 88 0,1 2336 1,3 5,6 --- 6,0
21.02.2021 4,2 4,8 6,4 8,2 16,9 1,4 79 0,0 2909 1,6 7,4 --- 6,3
20.02.2021 3,3 4,2 7,2 8,3 16,5 1,5 84 0,0 2427 1,2 5,7 --- 5,8
19.02.2021 2,4 3,0 4,5 5,5 10,5 0,7 86 0,4 2422 1,6 12,2 --- 5,5
18.02.2021 1,4 1,5 4,3 5,3 9,7 -0,7 87 0,1 1521 1,5 8,7 --- 4,3
17.02.2021 0,9 0,4 5,9 6,8 10,8 2,1 87 1,1 1466 2,0 9,0 --- 4,5
16.02.2021 0,9 -0,1 3,2 3,8 9,6 0,1 90 1,4 1690 2,3 7,6 --- 5,5
15.02.2021 1,0 -0,4 -2,2 -2,0 0,3 -7,1 72 0,0 724 2,1 8,1 --- 1,7
14.02.2021 1,1 -0,5 -6,3 -5,3 2,9 -14,1 75 0,0 2594 1,0 6,8 --- 6,3
13.02.2021 1,4 -0,2 -8,0 -7,2 -0,3 -14,5 79 0,0 2570 1,3 6,4 --- 6,2
12.02.2021 1,6 0,1 -6,5 -6,9 -2,0 -11,5 81 0,0 2418 2,1 7,7 --- 5,9
11.02.2021 1,8 0,1 -5,0 -5,4 -0,7 -9,6 85 1,0 2157 1,3 4,5 --- 4,5
10.02.2021 2,1 0,3 -8,9 -9,3 -4,7 -13,2 84 0,0 2177 3,1 9,4 --- 5,0
09.02.2021 2,6 0,7 -8,7 -9,4 -6,5 -13,2 82 0,1 1611 2,1 5,6 --- 5,2
08.02.2021 3,2 1,2 -6,2 -6,7 -5,4 -8,3 87 0,0 913 3,6 6,9 --- 2,3
07.02.2021 4,4 2,5 -1,4 -1,6 0,9 -5,6 97 2,1 237 3,4 7,6 --- ---
06.02.2021 5,3 4,7 3,1 3,2 5,1 0,6 98 12,9 234 2,5 7,1 --- ---
05.02.2021 5,4 4,8 3,6 3,8 6,0 0,4 98 8,1 362 0,6 4,6 --- ---
04.02.2021 5,8 6,4 6,6 7,2 11,0 0,6 81 1,5 1820 2,7 12,0 --- 4,4
03.02.2021 5,0 6,1 8,8 9,3 12,2 8,1 95 9,6 390 3,3 11,5 --- 0,2
02.02.2021 3,7 3,9 5,4 5,7 8,9 2,9 98 4,9 517 2,1 7,7 --- ---
01.02.2021 3,2 2,5 1,8 1,8 3,3 0,2 99 5,7 409 0,6 3,8 --- ---
31.01.2021 3,6 1,9 -0,6 -0,5 1,4 -3,8 88 0,4 805 1,7 5,5 --- 2,6
30.01.2021 4,6 4,1 2,3 2,4 7,6 -0,2 94 5,4 464 2,8 10,4 --- ---
29.01.2021 3,9 4,6 6,6 6,9 10,5 3,3 92 21,2 792 3,3 13,7 --- 1,7
28.01.2021 2,9 2,6 3,3 3,3 5,3 1,4 99 21,5 327 1,7 6,6 --- ---
27.01.2021 2,8 1,5 0,3 0,5 2,3 -0,8 97 0,9 452 2,4 8,1 --- 0,1
26.01.2021 2,9 1,8 1,1 1,4 3,3 -0,9 91 0,3 712 3,4 10,6 --- 1,4
25.01.2021 3,2 1,8 -0,2 -0,1 2,0 -1,3 94 0,5 685 0,9 5,9 --- 1,2
24.01.2021 3,8 2,5 0,6 0,7 2,8 -1,0 97 7,2 715 3,0 10,0 --- 1,8
23.01.2021 4,1 3,3 2,3 2,5 3,8 1,0 97 0,3 605 1,7 6,4 --- 1,2
22.01.2021 4,3 4,6 4,5 4,8 9,4 0,9 93 5,7 475 2,3 12,6 --- 0,6
21.01.2021 3,4 3,5 6,3 6,9 8,6 5,7 76 1,2 536 3,3 11,3 --- 0,5
20.01.2021 2,8 2,3 4,0 4,6 7,3 1,5 73 0,0 738 3,3 9,5 --- 2,6
19.01.2021 2,5 1,9 2,2 2,5 4,1 0,8 92 2,2 222 3,5 10,8 --- ---
18.01.2021 2,0 1,2 2,1 2,5 4,4 0,1 91 0,5 660 1,9 8,0 --- 1,8
17.01.2021 1,9 0,5 -1,0 -1,1 0,1 -2,6 96 1,1 602 1,4 6,3 --- 1,4
16.01.2021 2,0 0,5 -1,2 -1,2 0,0 -2,2 75 0,0 416 1,8 5,3 --- ---
15.01.2021 2,2 0,6 -1,1 -0,6 1,0 -4,5 89 0,0 331 1,4 4,3 --- ---
14.01.2021 2,2 1,0 0,3 0,5 2,5 -1,0 82 0,1 675 2,0 9,3 --- 2,0
13.01.2021 2,2 0,6 0,3 1,0 3,9 -1,5 89 0,1 639 2,6 11,1 --- 1,1
12.01.2021 2,3 0,6 0,9 1,3 4,5 -0,6 94 2,3 321 3,4 10,2 --- ---
11.01.2021 2,6 0,6 -2,8 -2,4 1,1 -6,3 92 0,1 874 2,2 10,9 --- 2,3
10.01.2021 3,0 1,4 -1,3 -0,9 3,1 -5,0 94 0,0 1029 0,6 7,2 --- 3,6
09.01.2021 3,3 1,8 -0,4 0,0 2,2 -2,4 92 0,0 613 0,6 7,4 --- 1,2
08.01.2021 3,5 2,3 1,0 1,1 2,3 0,2 95 1,4 509 1,6 5,1 --- 0,6
07.01.2021 3,6 2,3 0,9 1,0 2,3 0,2 92 0,2 404 1,6 5,9 --- 0,3
06.01.2021 3,6 2,5 1,5 1,7 2,9 0,3 96 1,9 347 1,5 4,4 --- ---
05.01.2021 3,5 2,2 1,2 1,4 2,1 0,5 95 1,8 249 2,9 6,9 --- ---
04.01.2021 3,6 2,1 0,6 0,8 1,6 0,2 96 1,2 150 1,7 4,9 --- ---
03.01.2021 3,9 2,2 0,6 1,0 2,6 -1,1 92 1,4 274 1,8 7,2 --- ---
02.01.2021 4,2 2,8 0,7 0,9 2,6 -0,9 97 0,0 462 0,7 3,3 --- ---
01.01.2021 4,2 3,0 1,4 1,3 2,6 0,3 99 2,5 321 0,5 5,6 --- 0,1

Mittelwerte (Temperaturen, Strahlung, rel. Feuchte, Wind), Summe (Regen) für 2021
11,8 12,1 10,8 10,9 81 534 3.345 1,8

Landesbetrieb Landwirtschaft Hessen 2009

      Werte bis 5 Uhr SommerzeitCSV-Datei: Muenzenberg21.csvDiagramm: Muenzenberg